KDAN/DAN METAR and TAF weather

Enter ICAO airport designator
Station Type Date Time Source
KDAN METAR 2019/02/23 16:53 UTC NOAA

KDAN 231653Z AUTO 05008KT 4SM -RA BR BKN008 BKN017 OVC030 04/03 A3030 RMK AO2 PRESFR SLP257 P0013 T00390033


Station Type Date Time Source
KDAN Decoded METAR 2019/02/23 16:53 UTC NOAA

DANVILLE REGIONAL AIRPORT, VA, United States (KDAN) 36-34N 079-20W 175M
Feb 23, 2019 - 11:53 AM EST / 2019.02.23 1653 UTC
Wind: from the NE (050 degrees) at 9 MPH (8 KT):0
Visibility: 4 mile(s):0
Sky conditions: overcast
Weather: light rain; mist
Precipitation last hour: 0.13 inches
Temperature: 39.0 F (3.9 C)
Dew Point: 37.9 F (3.3 C)
Relative Humidity: 95%
Pressure (altimeter): 30.3 in. Hg (1026 hPa)
Pressure tendency: falling rapidly
ob: KDAN 231653Z AUTO 05008KT 4SM -RA BR BKN008 BKN017 OVC030 04/03 A3030 RMK AO2 PRESFR SLP257 P0013 T00390033
cycle: 17

Station Type Date Time Source
KDAN TAF 2019/02/23 15:18 UTC NOAA

TAF
AMD KDAN 231515Z 2315/2412 05008KT 3SM -RA BR OVC015
TEMPO 2315/2318 2SM RA OVC008
FM232300 07004KT 4SM -RA BR SCT009 OVC012


Example: see airport list